Menu Close Menu
Station Historical Data
Daily Summary for August 6, 2017 Units:  Metric    English   Both
« Previous Day
Next Day »
Daily Weekly Monthly Yearly Custom
  High: Low: Average:
Temperature: 31.6 °C 19.2 °C 24.4 °C
Dew Point: 22.7 °C 15.4 °C 19.5 °C
Humidity: 93% 54% 75%
Wind Speed: 1.6km/h 0km/h 0km/h
Wind Gust: 4.8km/h - -
Wind- - WNW
Pressure: 1019.2 hPa 1015.5 hPa -
Precipitation: 9.4 mm    
Historical Graphs
 
 
Tabular Data for August 6, 2017
Time Temperature Dew Point Pressure Wind Wind Speed Wind Gust Humidity Rainfall Rate (Hourly) solar Conditions
00:00 21.9 °C 16.8 °C 1017.5 hPa Calm     73% 0 mm WeatherDisplay:10.37 W/m2 FEW
00:05 21.8 °C 15.8 °C 1017.5 hPa Calm     69% 0 mm WeatherDisplay:10.37 W/m2 FEW
00:10 21.7 °C 15.8 °C 1017.5 hPa Calm     69% 0 mm WeatherDisplay:10.37 W/m2 FEW
00:15 21.7 °C 16 °C 1017.5 hPa Calm     70% 0 mm WeatherDisplay:10.37 W/m2 FEW
00:20 21.7 °C 15.8 °C 1017.5 hPa Calm     69% 0 mm WeatherDisplay:10.37 W/m2 CLR
00:25 21.7 °C 15.7 °C 1017.2 hPa Calm     69% 0 mm WeatherDisplay:10.37 W/m2 CLR
00:30 21.7 °C 16.2 °C 1017.2 hPa Calm     71% 0 mm WeatherDisplay:10.37 W/m2 CLR
00:35 21.7 °C 16.4 °C 1017.2 hPa Calm     72% 0 mm WeatherDisplay:10.37 W/m2 CLR
00:40 21.6 °C 16.6 °C 1017.2 hPa Calm     73% 0 mm WeatherDisplay:10.37 W/m2 CLR
00:45 21.5 °C 16.4 °C 1017.2 hPa Calm     73% 0 mm WeatherDisplay:10.37 W/m2 CLR
00:50 21.5 °C 16.4 °C 1017.2 hPa Calm     73% 0 mm WeatherDisplay:10.37 W/m2 CLR
00:55 21.4 °C 16.8 °C 1017.2 hPa Calm     75% 0 mm WeatherDisplay:10.37 W/m2 CLR
01:00 21.4 °C 16.8 °C 1017.2 hPa Calm     75% 0 mm WeatherDisplay:10.37 W/m2 CLR
01:10 21.3 °C 16.9 °C 1017.2 hPa Calm     76% 0 mm WeatherDisplay:10.37 W/m2 CLR
01:15 21.2 °C 16.8 °C 1017.2 hPa Calm     76% 0 mm WeatherDisplay:10.37 W/m2 CLR
01:20 21.1 °C 16.9 °C 1017.2 hPa Calm     77% 0 mm WeatherDisplay:10.37 W/m2 CLR
01:25 21 °C 17 °C 1017.2 hPa Calm     78% 0 mm WeatherDisplay:10.37 W/m2 CLR
01:30 20.9 °C 16.9 °C 1017.2 hPa Calm     78% 0 mm WeatherDisplay:10.37 W/m2 CLR
01:35 20.9 °C 16.9 °C 1017.2 hPa Calm     78% 0 mm WeatherDisplay:10.37 W/m2 CLR
01:40 20.9 °C 16.9 °C 1017.2 hPa Calm     78% 0 mm WeatherDisplay:10.37 W/m2 CLR
01:45 20.9 °C 17.1 °C 1017.2 hPa Calm     79% 0 mm WeatherDisplay:10.37 W/m2 CLR
01:50 20.9 °C 17.1 °C 1016.8 hPa Calm     79% 0 mm WeatherDisplay:10.37 W/m2 CLR
01:55 20.9 °C 16.9 °C 1016.8 hPa Calm     78% 0 mm WeatherDisplay:10.37 W/m2 CLR
02:00 20.8 °C 16.6 °C 1016.8 hPa Calm     77% 0 mm WeatherDisplay:10.37 W/m2 CLR
02:05 20.8 °C 16.2 °C 1016.8 hPa Calm     75% 0 mm WeatherDisplay:10.37 W/m2 CLR
02:10 20.8 °C 16.6 °C 1016.8 hPa Calm     77% 0 mm WeatherDisplay:10.37 W/m2 CLR
02:15 20.8 °C 16 °C 1016.8 hPa Calm     74% 0 mm WeatherDisplay:10.37 W/m2 CLR
02:20 20.9 °C 16.1 °C 1016.8 hPa Calm     74% 0 mm WeatherDisplay:10.37 W/m2 BKN
02:25 20.9 °C 16.1 °C 1016.8 hPa Calm     74% 0 mm WeatherDisplay:10.37 W/m2 BKN
02:35 20.9 °C 15.7 °C 1016.8 hPa Calm     72% 0 mm WeatherDisplay:10.37 W/m2 BKN
02:40 20.9 °C 15.4 °C 1016.8 hPa Calm     71% 0 mm WeatherDisplay:10.37 W/m2 BKN
02:45 20.9 °C 15.5 °C 1016.8 hPa Calm     71% 0 mm WeatherDisplay:10.37 W/m2 BKN
02:50 21 °C 16 °C 1016.8 hPa Calm     73% 0 mm WeatherDisplay:10.37 W/m2 BKN
02:55 21 °C 15.9 °C 1016.8 hPa Calm     73% 0 mm WeatherDisplay:10.37 W/m2 BKN
03:00 20.9 °C 15.7 °C 1016.8 hPa Calm     72% 0 mm WeatherDisplay:10.37 W/m2 BKN
03:05 20.9 °C 16.1 °C 1016.8 hPa Calm     74% 0 mm WeatherDisplay:10.37 W/m2 BKN
03:10 20.9 °C 15.9 °C 1016.8 hPa Calm     73% 0 mm WeatherDisplay:10.37 W/m2 BKN
03:15 20.9 °C 15.9 °C 1017.2 hPa Calm     73% 0 mm WeatherDisplay:10.37 W/m2 BKN
03:20 20.8 °C 16.2 °C 1017.2 hPa Calm     75% 0 mm WeatherDisplay:10.37 W/m2 FEW
03:25 20.8 °C 16.4 °C 1017.2 hPa Calm     76% 0 mm WeatherDisplay:10.37 W/m2 FEW
03:30 20.7 °C 16.6 °C 1017.2 hPa Calm     77% 0 mm WeatherDisplay:10.37 W/m2 FEW
03:40 20.6 °C 16.6 °C 1017.2 hPa Calm     78% 0 mm WeatherDisplay:10.37 W/m2 FEW
03:45 20.6 °C 16.6 °C 1017.2 hPa Calm     78% 0 mm WeatherDisplay:10.37 W/m2 FEW
04:00 20.4 °C 16.1 °C 1016.8 hPa Calm     76% 0 mm WeatherDisplay:10.37 W/m2 FEW
04:10 20.4 °C 16.1 °C 1016.8 hPa Calm     76% 0 mm WeatherDisplay:10.37 W/m2 FEW
04:15 20.4 °C 16.5 °C 1016.8 hPa Calm     78% 0 mm WeatherDisplay:10.37 W/m2 FEW
04:20 20.4 °C 16.4 °C 1016.8 hPa Calm     78% 0 mm WeatherDisplay:10.37 W/m2 SCT
04:25 20.3 °C 15.9 °C 1016.8 hPa Calm     76% 0 mm WeatherDisplay:10.37 W/m2 SCT
04:30 20.3 °C 16.2 °C 1016.8 hPa Calm     77% 0 mm WeatherDisplay:10.37 W/m2 SCT
04:35 20.3 °C 16.4 °C 1017.2 hPa Calm     78% 0 mm WeatherDisplay:10.37 W/m2 SCT
04:45 20.3 °C 16.1 °C 1017.2 hPa Calm     77% 0 mm WeatherDisplay:10.37 W/m2 SCT
04:55 20.2 °C 15.8 °C 1017.5 hPa Calm     76% 0 mm WeatherDisplay:10.37 W/m2 SCT
05:00 20.2 °C 16.1 °C 1017.5 hPa Calm     77% 0 mm WeatherDisplay:10.37 W/m2 SCT
05:05 20.2 °C 15.8 °C 1017.5 hPa Calm   1.6 km/h 76% 0 mm WeatherDisplay:10.37 W/m2 SCT
05:10 20.2 °C 16 °C 1017.5 hPa Calm     77% 0 mm WeatherDisplay:10.37 W/m2 SCT
05:15 20.2 °C 16.2 °C 1017.5 hPa Calm     78% 0 mm WeatherDisplay:10.37 W/m2 SCT
05:20 20.1 °C 16.1 °C 1017.5 hPa Calm     78% 0 mm WeatherDisplay:10.37 W/m2 CLR
05:30 19.9 °C 16 °C 1017.5 hPa Calm     78% 0 mm WeatherDisplay:10.37 W/m2 CLR
05:35 19.9 °C 16.2 °C 1017.5 hPa Calm     79% 0 mm WeatherDisplay:10.37 W/m2 CLR
05:40 19.9 °C 16.4 °C 1017.5 hPa Calm     80% 0 mm WeatherDisplay:10.37 W/m2 CLR
05:45 19.9 °C 16.3 °C 1017.5 hPa Calm     80% 0 mm WeatherDisplay:10.37 W/m2 CLR
05:50 19.8 °C 16.2 °C 1017.5 hPa Calm     80% 0 mm WeatherDisplay:10.37 W/m2 CLR
05:55 19.7 °C 16.4 °C 1017.5 hPa Calm     81% 0 mm WeatherDisplay:10.37 W/m2 CLR
06:00 19.7 °C 16.6 °C 1017.5 hPa Calm     82% 0 mm WeatherDisplay:10.37 W/m2 CLR
06:10 19.6 °C 16.4 °C 1017.8 hPa Calm     82% 0 mm WeatherDisplay:10.37 W/m2 CLR
06:15 19.5 °C 16.3 °C 1017.8 hPa Calm     82% 0 mm WeatherDisplay:10.37 W/m2 CLR
06:20 19.5 °C 16.6 °C 1017.8 hPa Calm     83% 0 mm WeatherDisplay:10.37 W/m2 CLR
06:25 19.4 °C 16.5 °C 1017.8 hPa Calm     83% 0 mm WeatherDisplay:10.37 W/m2 CLR
06:30 19.4 °C 16.4 °C 1017.8 hPa Calm     83% 0 mm WeatherDisplay:10.37 W/m2 CLR
06:35 19.3 °C 16.6 °C 1017.8 hPa Calm     84% 0 mm WeatherDisplay:10.37 W/m2 CLR
06:40 19.3 °C 16.6 °C 1017.8 hPa Calm     84% 0 mm WeatherDisplay:10.37 W/m2 CLR
06:45 19.3 °C 16.5 °C 1017.8 hPa Calm     84% 0 mm WeatherDisplay:10.37 W/m2 CLR
06:50 19.2 °C 16.3 °C 1017.8 hPa Calm     83% 0 mm WeatherDisplay:10.37 W/m2 CLR
06:55 19.2 °C 16.3 °C 1017.8 hPa Calm     83% 0 mm WeatherDisplay:10.37 W/m2 CLR
07:00 19.2 °C 16 °C 1017.8 hPa Calm     82% 0 mm WeatherDisplay:10.37 W/m2 CLR
07:05 19.2 °C 16.1 °C 1018.2 hPa Calm     82% 0 mm WeatherDisplay:10.37 W/m2 CLR
07:10 19.3 °C 16.3 °C 1018.2 hPa Calm     83% 0 mm WeatherDisplay:10.37 W/m2 CLR
07:15 19.3 °C 16.3 °C 1018.2 hPa Calm     83% 0 mm WeatherDisplay:10.37 W/m2 CLR
07:20 19.3 °C 16.2 °C 1018.2 hPa Calm     82% 0 mm WeatherDisplay:10.37 W/m2 FEW
07:25 19.4 °C 16.4 °C 1018.2 hPa Calm     83% 0 mm WeatherDisplay:10.37 W/m2 FEW
07:30 19.4 °C 16.5 °C 1018.2 hPa Calm     83% 0 mm WeatherDisplay:10.37 W/m2 FEW
07:35 19.5 °C 16.5 °C 1018.2 hPa Calm     83% 0 mm WeatherDisplay:10.37 W/m2 FEW
07:40 19.5 °C 16.6 °C 1018.2 hPa Calm     83% 0 mm WeatherDisplay:10.37 W/m2 FEW
07:45 19.6 °C 16.6 °C 1018.2 hPa Calm     83% 0 mm WeatherDisplay:10.37 W/m2 FEW
07:50 19.6 °C 16.7 °C 1018.2 hPa Calm     83% 0 mm WeatherDisplay:10.37 W/m2 FEW
07:55 19.8 °C 16.8 °C 1018.2 hPa Calm     83% 0 mm WeatherDisplay:10.37 W/m2 FEW
08:00 19.9 °C 16.9 °C 1018.2 hPa Calm     83% 0 mm WeatherDisplay:10.37 W/m2 FEW
08:05 20 °C 17.1 °C 1018.5 hPa Calm     83% 0 mm WeatherDisplay:10.37 W/m2 FEW
08:10 20.2 °C 17.2 °C 1018.5 hPa Calm     83% 0 mm WeatherDisplay:10.37 W/m2 FEW
08:15 20.4 °C 17.4 °C 1018.5 hPa Calm     83% 0 mm WeatherDisplay:10.37 W/m2 FEW
08:20 20.6 °C 17.6 °C 1018.8 hPa Calm     83% 0 mm WeatherDisplay:10.37 W/m2 FEW
08:25 20.9 °C 17.9 °C 1018.8 hPa Calm     83% 0 mm WeatherDisplay:10.37 W/m2 FEW
08:30 21.2 °C 17.8 °C 1018.8 hPa Calm     81% 0 mm WeatherDisplay:10.37 W/m2 FEW
08:35 21.5 °C 17.7 °C 1018.8 hPa Calm   1.6 km/h 79% 0 mm WeatherDisplay:10.37 W/m2 FEW
08:40 21.8 °C 17.8 °C 1018.8 hPa Calm   1.6 km/h 78% 0 mm WeatherDisplay:10.37 W/m2 FEW
08:45 22 °C 17.8 °C 1018.8 hPa Calm   1.6 km/h 77% 0 mm WeatherDisplay:10.37 W/m2 FEW
08:50 22.2 °C 18.2 °C 1019.2 hPa Calm     78% 0 mm WeatherDisplay:10.37 W/m2 FEW
08:55 22.3 °C 17.9 °C 1018.8 hPa Calm   1.6 km/h 76% 0 mm WeatherDisplay:10.37 W/m2 FEW
09:10 22.9 °C 18.1 °C 1018.8 hPa Calm   1.6 km/h 74% 0 mm WeatherDisplay:10.37 W/m2 FEW
09:15 23.1 °C 18 °C 1018.8 hPa Calm   1.6 km/h 73% 0 mm WeatherDisplay:10.37 W/m2 FEW
09:20 23.3 °C 17.8 °C 1018.8 hPa Calm     71% 0 mm WeatherDisplay:10.37 W/m2 FEW
09:25 23.7 °C 18.6 °C 1018.8 hPa Calm   1.6 km/h 73% 0 mm WeatherDisplay:10.37 W/m2 FEW
09:30 24 °C 18.4 °C 1018.8 hPa Calm     71% 0 mm WeatherDisplay:10.37 W/m2 SCT
09:35 24.2 °C 18.2 °C 1018.8 hPa Calm   1.6 km/h 69% 0 mm WeatherDisplay:10.37 W/m2 SCT
09:40 24.4 °C 18.1 °C 1018.5 hPa Calm   1.6 km/h 68% 0 mm WeatherDisplay:10.37 W/m2 SCT
09:45 24.6 °C 18.3 °C 1018.5 hPa Calm   1.6 km/h 68% 0 mm WeatherDisplay:10.37 W/m2 SCT
09:50 24.8 °C 18.7 °C 1018.5 hPa Calm   1.6 km/h 69% 0 mm WeatherDisplay:10.37 W/m2 BKN
09:55 24.9 °C 18.6 °C 1018.5 hPa Calm   1.6 km/h 68% 0 mm WeatherDisplay:10.37 W/m2 BKN
10:00 25 °C 18.4 °C 1018.5 hPa Calm   1.6 km/h 67% 0 mm WeatherDisplay:10.37 W/m2 BKN
10:05 25.1 °C 18.8 °C 1018.5 hPa Calm     68% 0 mm WeatherDisplay:10.37 W/m2 BKN
10:10 25.4 °C 19.3 °C 1018.5 hPa Calm   1.6 km/h 69% 0 mm WeatherDisplay:10.37 W/m2 BKN
10:15 25.6 °C 19.3 °C 1018.5 hPa Calm   1.6 km/h 68% 0 mm WeatherDisplay:10.37 W/m2 BKN
10:20 25.8 °C 19.5 °C 1018.5 hPa Calm   1.6 km/h 68% 0 mm WeatherDisplay:10.37 W/m2 SCT
10:25 26.1 °C 19.9 °C 1018.5 hPa Calm   1.6 km/h 69% 0 mm WeatherDisplay:10.37 W/m2 SCT
10:30 26.3 °C 19.9 °C 1018.5 hPa Calm   1.6 km/h 68% 0 mm WeatherDisplay:10.37 W/m2 SCT
10:35 26.6 °C 20.2 °C 1018.2 hPa Calm   1.6 km/h 68% 0 mm WeatherDisplay:10.37 W/m2 SCT
10:40 26.7 °C 20.6 °C 1018.2 hPa Calm   1.6 km/h 69% 0 mm WeatherDisplay:10.37 W/m2 SCT
10:45 26.9 °C 20.2 °C 1018.2 hPa Calm   1.6 km/h 67% 0 mm WeatherDisplay:10.37 W/m2 SCT
10:50 27 °C 20.6 °C 1018.2 hPa Calm   1.6 km/h 68% 0 mm WeatherDisplay:10.37 W/m2 SCT
10:55 27.1 °C 20.4 °C 1018.2 hPa Calm   1.6 km/h 67% 0 mm WeatherDisplay:10.37 W/m2 SCT
11:00 27.1 °C 20.7 °C 1018.2 hPa Calm     68% 0 mm WeatherDisplay:10.37 W/m2 SCT
11:05 27.2 °C 20.8 °C 1018.5 hPa Calm   1.6 km/h 68% 0 mm WeatherDisplay:10.37 W/m2 SCT
11:10 27.4 °C 20.7 °C 1018.2 hPa Calm     67% 0 mm WeatherDisplay:10.37 W/m2 SCT
11:15 27.6 °C 21.4 °C 1018.2 hPa Calm   1.6 km/h 69% 0 mm WeatherDisplay:10.37 W/m2 SCT
11:20 27.7 °C 21.3 °C 1018.2 hPa Calm   1.6 km/h 68% 0 mm WeatherDisplay:10.37 W/m2 FEW
11:30 28.1 °C 21.8 °C 1017.8 hPa Calm   1.6 km/h 69% 0 mm WeatherDisplay:10.37 W/m2 FEW
11:40 28.2 °C 21.5 °C 1017.8 hPa Calm   1.6 km/h 67% 0 mm WeatherDisplay:10.37 W/m2 FEW
11:45 28.3 °C 21.8 °C 1017.8 hPa Calm   3.2 km/h 68% 0 mm WeatherDisplay:10.37 W/m2 FEW
11:50 28.3 °C 21.8 °C 1017.8 hPa Calm   1.6 km/h 68% 0 mm WeatherDisplay:10.37 W/m2 FEW
11:55 28.3 °C 21.6 °C 1017.8 hPa Calm     67% 0 mm WeatherDisplay:10.37 W/m2 FEW
12:00 28.4 °C 22.2 °C 1017.8 hPa Calm     69% 0 mm WeatherDisplay:10.37 W/m2 FEW
12:05 28.3 °C 21.6 °C 1017.8 hPa Calm     67% 0 mm WeatherDisplay:10.37 W/m2 FEW
12:10 28.5 °C 21.8 °C 1017.8 hPa Calm     67% 0 mm WeatherDisplay:10.37 W/m2 FEW
12:15 28.7 °C 21.7 °C 1017.8 hPa Calm   1.6 km/h 66% 0 mm WeatherDisplay:10.37 W/m2 FEW
12:20 28.9 °C 22.2 °C 1017.8 hPa Calm   3.2 km/h 67% 0 mm WeatherDisplay:10.37 W/m2 SCT
12:25 29.2 °C 21.7 °C 1017.8 hPa WSW 1.6 km/h 1.6 km/h 64% 0 mm WeatherDisplay:10.37 W/m2 SCT
12:30 29.2 °C 21.7 °C 1017.8 hPa Calm   3.2 km/h 64% 0 mm WeatherDisplay:10.37 W/m2 SCT
12:35 29.5 °C 21.9 °C 1017.5 hPa Calm   1.6 km/h 64% 0 mm WeatherDisplay:10.37 W/m2 SCT
12:40 30 °C 21.9 °C 1017.5 hPa Calm   1.6 km/h 62% 0 mm WeatherDisplay:10.37 W/m2 SCT
12:45 30.2 °C 21.9 °C 1017.5 hPa Calm     61% 0 mm WeatherDisplay:10.37 W/m2 SCT
12:55 30.3 °C 22.5 °C 1017.5 hPa NW 1.6 km/h 3.2 km/h 63% 0 mm WeatherDisplay:10.37 W/m2 SCT
13:00 30.5 °C 22.4 °C 1017.5 hPa Calm   3.2 km/h 62% 0 mm WeatherDisplay:10.37 W/m2 SCT
13:05 30.2 °C 21.8 °C 1017.5 hPa Calm   1.6 km/h 61% 0 mm WeatherDisplay:10.37 W/m2 SCT
13:15 30.3 °C 22.2 °C 1017.2 hPa WNW 1.6 km/h 3.2 km/h 62% 0 mm WeatherDisplay:10.37 W/m2 SCT
13:20 30.1 °C 21.8 °C 1017.2 hPa Calm   1.6 km/h 61% 0 mm WeatherDisplay:10.37 W/m2 BKN
13:25 29.8 °C 21.8 °C 1017.5 hPa Calm   1.6 km/h 62% 0 mm WeatherDisplay:10.37 W/m2 BKN
13:30 29.7 °C 21.9 °C 1017.5 hPa Calm   1.6 km/h 63% 0 mm WeatherDisplay:10.37 W/m2 BKN
13:35 29.5 °C 22.2 °C 1017.2 hPa Calm   1.6 km/h 65% 0 mm WeatherDisplay:10.37 W/m2 BKN
13:40 29.4 °C 22.1 °C 1017.2 hPa Calm   1.6 km/h 65% 0 mm WeatherDisplay:10.37 W/m2 BKN
13:45 29.2 °C 21.7 °C 1017.2 hPa Calm   1.6 km/h 64% 0 mm WeatherDisplay:10.37 W/m2 BKN
13:50 29 °C 22.3 °C 1017.2 hPa Calm   1.6 km/h 67% 0 mm WeatherDisplay:10.37 W/m2 BKN
13:55 28.9 °C 22.7 °C 1017.2 hPa Calm   1.6 km/h 69% 0 mm WeatherDisplay:10.37 W/m2 BKN
14:00 29.1 °C 22.1 °C 1017.2 hPa Calm   1.6 km/h 66% 0 mm WeatherDisplay:10.37 W/m2 BKN
14:05 29.3 °C 22.1 °C 1017.2 hPa Calm   1.6 km/h 65% 0 mm WeatherDisplay:10.37 W/m2 BKN
14:10 29.9 °C 21.8 °C 1017.2 hPa Calm   1.6 km/h 62% 0 mm WeatherDisplay:10.37 W/m2 BKN
14:15 30.1 °C 22.1 °C 1016.8 hPa Calm     62% 0 mm WeatherDisplay:10.37 W/m2 BKN
14:20 30.3 °C 22.5 °C 1016.8 hPa Calm   1.6 km/h 63% 0 mm WeatherDisplay:10.37 W/m2 BKN
14:25 30.5 °C 21.8 °C 1016.8 hPa Calm   3.2 km/h 60% 0 mm WeatherDisplay:10.37 W/m2 BKN
14:30 30.6 °C 21.6 °C 1016.8 hPa Calm   1.6 km/h 59% 0 mm WeatherDisplay:10.37 W/m2 BKN
14:35 30.6 °C 22.5 °C 1016.5 hPa Calm   1.6 km/h 62% 0 mm WeatherDisplay:10.37 W/m2 BKN
14:40 30.8 °C 22.4 °C 1016.5 hPa Calm   1.6 km/h 61% 0 mm WeatherDisplay:10.37 W/m2 BKN
14:50 31.1 °C 21.2 °C 1016.1 hPa West 1.6 km/h 3.2 km/h 56% 0 mm WeatherDisplay:10.37 W/m2 BKN
15:00 31.4 °C 21.6 °C 1016.1 hPa Calm   1.6 km/h 56% 0 mm WeatherDisplay:10.37 W/m2 BKN
15:05 31.6 °C 21.1 °C 1016.1 hPa Calm   1.6 km/h 54% 0 mm WeatherDisplay:10.37 W/m2 BKN
15:10 31.3 °C 21.5 °C 1016.1 hPa Calm   1.6 km/h 56% 0 mm WeatherDisplay:10.37 W/m2 BKN
15:15 31.3 °C 21.2 °C 1016.1 hPa Calm     55% 0 mm WeatherDisplay:10.37 W/m2 BKN
15:20 31.4 °C 21.3 °C 1015.8 hPa Calm     55% 0 mm WeatherDisplay:10.37 W/m2 BKN
15:25 31.4 °C 21.6 °C 1015.8 hPa Calm     56% 0 mm WeatherDisplay:10.37 W/m2 BKN
15:30 31.4 °C 21.8 °C 1016.1 hPa Calm   1.6 km/h 57% 0 mm WeatherDisplay:10.37 W/m2 BKN
15:40 30.1 °C 21.4 °C 1016.1 hPa Calm   3.2 km/h 60% 0 mm WeatherDisplay:10.37 W/m2 BKN
15:45 29.4 °C 21.1 °C 1015.8 hPa NW 1.6 km/h 4.8 km/h 61% 0 mm WeatherDisplay:10.37 W/m2 BKN
15:50 28.9 °C 20.9 °C 1015.8 hPa NW 1.6 km/h 4.8 km/h 62% 0 mm WeatherDisplay:10.37 W/m2 BKN
15:55 28.6 °C 21.1 °C 1015.8 hPa Calm   3.2 km/h 64% 0 mm WeatherDisplay:10.37 W/m2 BKN
16:00 28.4 °C 21.2 °C 1015.8 hPa Calm   4.8 km/h 65% 0 mm WeatherDisplay:10.37 W/m2 BKN
16:05 28.2 °C 21.2 °C 1015.8 hPa Calm   3.2 km/h 66% 0 mm WeatherDisplay:10.37 W/m2 BKN
16:10 28.1 °C 21.2 °C 1015.8 hPa Calm   1.6 km/h 66% 0 mm WeatherDisplay:10.37 W/m2 BKN
16:15 28.1 °C 21.2 °C 1015.8 hPa Calm   3.2 km/h 66% 0 mm WeatherDisplay:10.37 W/m2 BKN
16:20 28.3 °C 21.3 °C 1015.8 hPa Calm   1.6 km/h 66% 0 mm WeatherDisplay:10.37 W/m2 BKN
16:25 28.6 °C 21.3 °C 1015.5 hPa Calm   3.2 km/h 65% 0 mm WeatherDisplay:10.37 W/m2 BKN
16:30 28.6 °C 21.1 °C 1015.8 hPa Calm   3.2 km/h 64% 0 mm WeatherDisplay:10.37 W/m2 BKN
16:35 28.5 °C 21.3 °C 1015.8 hPa Calm   1.6 km/h 65% 0 mm WeatherDisplay:10.37 W/m2 BKN
16:40 28.7 °C 21.9 °C 1015.5 hPa Calm   1.6 km/h 67% 0 mm WeatherDisplay:10.37 W/m2 BKN
16:45 28.9 °C 22.2 °C 1015.5 hPa Calm   1.6 km/h 67% 0 mm WeatherDisplay:10.37 W/m2 BKN
16:50 29.2 °C 21.9 °C 1015.5 hPa WNW 1.6 km/h 4.8 km/h 65% 0 mm WeatherDisplay:10.37 W/m2 BKN
16:55 29.3 °C 22.1 °C 1015.5 hPa Calm   3.2 km/h 65% 0 mm WeatherDisplay:10.37 W/m2 BKN
17:00 29.6 °C 22.6 °C 1015.5 hPa Calm   1.6 km/h 66% 0 mm WeatherDisplay:10.37 W/m2 BKN
17:05 29.7 °C 22.4 °C 1015.5 hPa Calm   1.6 km/h 65% 0 mm WeatherDisplay:10.37 W/m2 BKN
17:10 29.3 °C 22.1 °C 1015.5 hPa Calm   3.2 km/h 65% 0 mm WeatherDisplay:10.37 W/m2 BKN
17:15 28.9 °C 21.4 °C 1015.8 hPa Calm   3.2 km/h 64% 0 mm WeatherDisplay:10.37 W/m2 BKN
17:20 28.8 °C 21.6 °C 1015.8 hPa Calm   1.6 km/h 65% 0 mm WeatherDisplay:10.37 W/m2 BKN
17:25 28.6 °C 21.9 °C 1015.8 hPa Calm   1.6 km/h 67% 0 mm WeatherDisplay:10.37 W/m2 BKN
17:30 28.5 °C 21.8 °C 1015.8 hPa Calm   1.6 km/h 67% 0 mm WeatherDisplay:10.37 W/m2 BKN
17:35 28.4 °C 21.9 °C 1015.5 hPa NNW 1.6 km/h 3.2 km/h 68% 0 mm WeatherDisplay:10.37 W/m2 BKN
17:45 28.2 °C 22 °C 1015.5 hPa Calm   1.6 km/h 69% 0 mm WeatherDisplay:10.37 W/m2 BKN
17:50 28.1 °C 22.1 °C 1015.5 hPa Calm   1.6 km/h 70% 0 mm WeatherDisplay:10.37 W/m2 BKN
17:55 28 °C 22.2 °C 1015.5 hPa Calm   1.6 km/h 71% 0 mm WeatherDisplay:10.37 W/m2 BKN
18:00 27.9 °C 22.2 °C 1015.8 hPa Calm     71% 0 mm WeatherDisplay:10.37 W/m2 BKN
18:05 27.9 °C 21.9 °C 1015.8 hPa Calm   1.6 km/h 70% 0 mm WeatherDisplay:10.37 W/m2 BKN
18:10 27.8 °C 21.8 °C 1016.1 hPa Calm   1.6 km/h 70% 0 mm WeatherDisplay:10.37 W/m2 BKN
18:15 27.8 °C 22.1 °C 1016.1 hPa Calm   1.6 km/h 71% 0 mm WeatherDisplay:10.37 W/m2 BKN
18:20 27.8 °C 22.1 °C 1015.8 hPa Calm   1.6 km/h 71% 0 mm WeatherDisplay:10.37 W/m2 BKN
18:25 27.9 °C 22.2 °C 1015.8 hPa Calm     71% 0 mm WeatherDisplay:10.37 W/m2 BKN
18:30 28 °C 22.2 °C 1015.8 hPa Calm   1.6 km/h 71% 0 mm WeatherDisplay:10.37 W/m2 BKN
18:35 28 °C 22.2 °C 1015.5 hPa Calm     71% 0 mm WeatherDisplay:10.37 W/m2 BKN
18:40 27.9 °C 22.2 °C 1015.5 hPa Calm     71% 0 mm WeatherDisplay:10.37 W/m2 BKN
18:45 27.8 °C 22.3 °C 1015.5 hPa Calm     72% 0 mm WeatherDisplay:10.37 W/m2 BKN
18:50 27.8 °C 22.3 °C 1015.5 hPa Calm     72% 0 mm WeatherDisplay:10.37 W/m2 BKN
18:55 27.9 °C 22.6 °C 1015.5 hPa Calm   1.6 km/h 73% 0 mm WeatherDisplay:10.37 W/m2 BKN
19:00 27.8 °C 22.7 °C 1015.5 hPa Calm     74% 0 mm WeatherDisplay:10.37 W/m2 BKN
19:05 27.7 °C 22.4 °C 1015.8 hPa Calm     73% 0 mm WeatherDisplay:10.37 W/m2 BKN
19:10 27.6 °C 22.6 °C 1015.8 hPa Calm     74% 0 mm WeatherDisplay:10.37 W/m2 BKN
19:15 27.5 °C 22.4 °C 1015.8 hPa Calm     74% 0 mm WeatherDisplay:10.37 W/m2 BKN
19:20 27.4 °C 22.4 °C 1015.8 hPa Calm     74% 0 mm WeatherDisplay:10.37 W/m2 BKN
19:25 27.3 °C 22.3 °C 1015.8 hPa Calm     74% 0 mm WeatherDisplay:10.37 W/m2 BKN
19:30 27.3 °C 22.4 °C 1015.8 hPa Calm     75% 0 mm WeatherDisplay:10.37 W/m2 BKN
19:40 27.1 °C 22.4 °C 1015.8 hPa Calm     76% 0 mm WeatherDisplay:10.37 W/m2 BKN
19:45 27 °C 22.4 °C 1015.8 hPa Calm     76% 0 mm WeatherDisplay:10.37 W/m2 BKN
19:50 26.9 °C 22.3 °C 1015.8 hPa Calm     76% 0 mm WeatherDisplay:10.37 W/m2 BKN
19:55 26.9 °C 22.3 °C 1015.8 hPa Calm     76% 0 mm WeatherDisplay:10.37 W/m2 BKN
20:00 26.8 °C 22.2 °C 1015.5 hPa Calm     76% 0 mm WeatherDisplay:10.37 W/m2 BKN
20:05 26.7 °C 22.3 °C 1015.8 hPa Calm     77% 0 mm WeatherDisplay:10.37 W/m2 BKN
20:10 26.7 °C 22.3 °C 1015.8 hPa Calm     77% 0 mm WeatherDisplay:10.37 W/m2 BKN
20:15 26.6 °C 22.4 °C 1016.5 hPa Calm   3.2 km/h 78% 0 mm WeatherDisplay:10.37 W/m2 BKN
20:20 26.2 °C 21.2 °C 1016.5 hPa NW 1.6 km/h 3.2 km/h 74% 0 mm WeatherDisplay:10.37 W/m2 OVC
20:25 25.2 °C 21.4 °C 1016.5 hPa Calm   3.2 km/h 80% 5.84 mm WeatherDisplay:10.37 W/m2 RA
20:30 24.1 °C 21 °C 1016.5 hPa Calm   1.6 km/h 83% 2.54 mm WeatherDisplay:10.37 W/m2 RA
20:35 23.4 °C 20.9 °C 1016.5 hPa Calm     86% 0.25 mm WeatherDisplay:10.37 W/m2 OVC
20:40 23 °C 20.7 °C 1016.5 hPa Calm     87% 0 mm WeatherDisplay:10.37 W/m2 OVC
20:45 22.7 °C 20.6 °C 1016.5 hPa Calm     88% 0 mm WeatherDisplay:10.37 W/m2 OVC
20:50 22.5 °C 20.6 °C 1016.5 hPa Calm     89% 0 mm WeatherDisplay:10.37 W/m2 OVC
20:55 22.4 °C 20.5 °C 1016.5 hPa Calm     89% 0.25 mm WeatherDisplay:10.37 W/m2 OVC
21:00 22.3 °C 20.6 °C 1016.5 hPa Calm     90% 0 mm WeatherDisplay:10.37 W/m2 OVC
21:05 22.2 °C 20.5 °C 1016.8 hPa Calm     90% 0 mm WeatherDisplay:10.37 W/m2 OVC
21:10 22.2 °C 20.7 °C 1016.8 hPa Calm     91% 0 mm WeatherDisplay:10.37 W/m2 OVC
21:15 22.2 °C 20.6 °C 1016.8 hPa Calm     91% 0 mm WeatherDisplay:10.37 W/m2 OVC
21:20 22.2 °C 20.6 °C 1017.2 hPa Calm     91% 0 mm WeatherDisplay:10.37 W/m2 OVC
21:25 22.2 °C 20.6 °C 1017.2 hPa Calm     91% 0 mm WeatherDisplay:10.37 W/m2 OVC
21:30 22.2 °C 20.6 °C 1017.2 hPa Calm     91% 0 mm WeatherDisplay:10.37 W/m2 OVC
21:35 22.1 °C 20.6 °C 1017.2 hPa Calm     91% 0 mm WeatherDisplay:10.37 W/m2 OVC
21:40 22.1 °C 20.5 °C 1017.2 hPa Calm     91% 0 mm WeatherDisplay:10.37 W/m2 OVC
21:45 22.1 °C 20.7 °C 1017.2 hPa Calm     92% 0 mm WeatherDisplay:10.37 W/m2 OVC
21:50 22.1 °C 20.7 °C 1017.2 hPa Calm     92% 0 mm WeatherDisplay:10.37 W/m2 OVC
21:55 22 °C 20.7 °C 1017.2 hPa Calm     92% 0 mm WeatherDisplay:10.37 W/m2 OVC
22:00 22 °C 20.7 °C 1017.2 hPa Calm     92% 0 mm WeatherDisplay:10.37 W/m2 OVC
22:05 22.1 °C 20.7 °C 1017.2 hPa Calm     92% 0 mm WeatherDisplay:10.37 W/m2 OVC
22:10 22.1 °C 20.7 °C 1017.2 hPa Calm     92% 0 mm WeatherDisplay:10.37 W/m2 OVC
22:15 22.1 °C 20.7 °C 1017.2 hPa Calm     92% 0 mm WeatherDisplay:10.37 W/m2 OVC
22:20 22.1 °C 20.7 °C 1017.2 hPa Calm     92% 0 mm WeatherDisplay:10.37 W/m2 BKN
22:25 22.1 °C 20.8 °C 1017.5 hPa Calm     92% 0 mm WeatherDisplay:10.37 W/m2 BKN
22:35 22.2 °C 20.8 °C 1017.5 hPa Calm     92% 0 mm WeatherDisplay:10.37 W/m2 -RA
22:40 22.2 °C 20.8 °C 1017.5 hPa Calm     92% 0 mm WeatherDisplay:10.37 W/m2 -RA
22:45 22.2 °C 20.8 °C 1017.5 hPa Calm     92% 0 mm WeatherDisplay:10.37 W/m2 -RA
22:50 22.2 °C 21.1 °C 1017.2 hPa Calm     93% 0 mm WeatherDisplay:10.37 W/m2 -RA
22:55 22.2 °C 21.1 °C 1017.2 hPa Calm     93% 0 mm WeatherDisplay:10.37 W/m2 -RA
23:00 22.3 °C 21.1 °C 1017.2 hPa Calm     93% 0 mm WeatherDisplay:10.37 W/m2 -RA
23:05 22.3 °C 21.1 °C 1017.5 hPa Calm     93% 0.25 mm WeatherDisplay:10.37 W/m2 -RA
23:10 22.3 °C 21.2 °C 1017.5 hPa Calm     93% 0 mm WeatherDisplay:10.37 W/m2 -RA
23:15 22.3 °C 21.2 °C 1017.2 hPa Calm     93% 0 mm WeatherDisplay:10.37 W/m2 -RA
23:20 22.3 °C 21.1 °C 1017.5 hPa Calm     93% 0 mm WeatherDisplay:10.37 W/m2 BKN
23:25 22.3 °C 21.2 °C 1017.5 hPa Calm     93% 0 mm WeatherDisplay:10.37 W/m2 BKN
23:30 22.3 °C 21.2 °C 1017.5 hPa Calm     93% 0 mm WeatherDisplay:10.37 W/m2 BKN
23:35 22.3 °C 21.2 °C 1017.2 hPa Calm     93% 0 mm WeatherDisplay:10.37 W/m2 BKN
23:40 22.4 °C 21.2 °C 1017.2 hPa Calm     93% 0 mm WeatherDisplay:10.37 W/m2 BKN
23:45 22.4 °C 21.2 °C 1017.2 hPa Calm     93% 0 mm WeatherDisplay:10.37 W/m2 BKN
23:50 22.5 °C 21.3 °C 1017.2 hPa Calm     93% 0 mm WeatherDisplay:10.37 W/m2 BKN
23:55 22.6 °C 21.3 °C 1017.2 hPa Calm     93% 0 mm WeatherDisplay:10.37 W/m2 BKN
Piedmont Bend
Compliments of Weather Underground - 4 mb